sensor_id;sensor_type;location;lat;lon;timestamp;P1;durP1;ratioP1;P2;durP2;ratioP2
36443;SDS011;24692;45.642;13.806;2023-04-16T00:00:41;1.27;;;1.03;;
36443;SDS011;24692;45.642;13.806;2023-04-16T00:03:06;2.07;;;1.30;;
36443;SDS011;24692;45.642;13.806;2023-04-16T00:05:32;1.37;;;1.27;;
36443;SDS011;24692;45.642;13.806;2023-04-16T00:07:58;1.27;;;1.17;;
36443;SDS011;24692;45.642;13.806;2023-04-16T00:10:23;2.00;;;1.10;;
36443;SDS011;24692;45.642;13.806;2023-04-16T00:12:49;1.73;;;1.40;;
36443;SDS011;24692;45.642;13.806;2023-04-16T00:15:15;1.13;;;1.03;;
36443;SDS011;24692;45.642;13.806;2023-04-16T00:17:40;1.83;;;1.20;;
36443;SDS011;24692;45.642;13.806;2023-04-16T00:20:06;1.30;;;1.20;;
36443;SDS011;24692;45.642;13.806;2023-04-16T00:22:33;1.77;;;1.20;;
36443;SDS011;24692;45.642;13.806;2023-04-16T00:24:58;1.50;;;1.20;;
36443;SDS011;24692;45.642;13.806;2023-04-16T00:27:24;1.63;;;1.20;;
36443;SDS011;24692;45.642;13.806;2023-04-16T00:29:49;1.03;;;1.00;;
36443;SDS011;24692;45.642;13.806;2023-04-16T00:32:15;1.10;;;1.00;;
36443;SDS011;24692;45.642;13.806;2023-04-16T00:34:41;1.10;;;1.00;;
36443;SDS011;24692;45.642;13.806;2023-04-16T00:37:06;1.10;;;1.00;;
36443;SDS011;24692;45.642;13.806;2023-04-16T00:39:32;1.00;;;1.00;;
36443;SDS011;24692;45.642;13.806;2023-04-16T00:41:58;1.33;;;1.10;;
36443;SDS011;24692;45.642;13.806;2023-04-16T00:44:23;1.20;;;1.10;;
36443;SDS011;24692;45.642;13.806;2023-04-16T00:46:49;1.50;;;1.30;;
36443;SDS011;24692;45.642;13.806;2023-04-16T00:49:15;1.37;;;1.20;;
36443;SDS011;24692;45.642;13.806;2023-04-16T00:51:41;1.27;;;1.17;;
36443;SDS011;24692;45.642;13.806;2023-04-16T00:54:06;3.73;;;1.10;;
36443;SDS011;24692;45.642;13.806;2023-04-16T00:56:33;1.90;;;1.60;;
36443;SDS011;24692;45.642;13.806;2023-04-16T00:58:59;1.30;;;1.20;;
36443;SDS011;24692;45.642;13.806;2023-04-16T01:01:25;1.50;;;1.40;;
36443;SDS011;24692;45.642;13.806;2023-04-16T01:03:51;1.60;;;1.40;;
36443;SDS011;24692;45.642;13.806;2023-04-16T01:06:17;2.13;;;1.30;;
36443;SDS011;24692;45.642;13.806;2023-04-16T01:08:43;1.63;;;1.40;;
36443;SDS011;24692;45.642;13.806;2023-04-16T01:11:09;1.40;;;1.30;;
36443;SDS011;24692;45.642;13.806;2023-04-16T01:13:35;1.40;;;1.30;;
36443;SDS011;24692;45.642;13.806;2023-04-16T01:16:07;1.80;;;1.30;;
36443;SDS011;24692;45.642;13.806;2023-04-16T01:18:33;1.60;;;1.50;;
36443;SDS011;24692;45.642;13.806;2023-04-16T01:21:00;2.50;;;1.53;;
36443;SDS011;24692;45.642;13.806;2023-04-16T01:23:25;2.13;;;1.50;;
36443;SDS011;24692;45.642;13.806;2023-04-16T01:25:51;1.67;;;1.57;;
36443;SDS011;24692;45.642;13.806;2023-04-16T01:28:17;2.33;;;1.47;;
36443;SDS011;24692;45.642;13.806;2023-04-16T01:30:42;1.50;;;1.40;;
36443;SDS011;24692;45.642;13.806;2023-04-16T01:33:12;1.43;;;1.27;;
36443;SDS011;24692;45.642;13.806;2023-04-16T01:35:38;9.47;;;1.60;;
36443;SDS011;24692;45.642;13.806;2023-04-16T01:38:05;1.43;;;1.33;;
36443;SDS011;24692;45.642;13.806;2023-04-16T01:40:32;3.13;;;1.53;;
36443;SDS011;24692;45.642;13.806;2023-04-16T01:42:58;1.70;;;1.43;;
36443;SDS011;24692;45.642;13.806;2023-04-16T01:45:24;1.50;;;1.40;;
36443;SDS011;24692;45.642;13.806;2023-04-16T01:47:50;3.67;;;1.47;;
36443;SDS011;24692;45.642;13.806;2023-04-16T01:50:16;1.67;;;1.57;;
36443;SDS011;24692;45.642;13.806;2023-04-16T01:52:43;1.80;;;1.70;;
36443;SDS011;24692;45.642;13.806;2023-04-16T01:55:09;1.60;;;1.50;;
36443;SDS011;24692;45.642;13.806;2023-04-16T01:57:35;1.70;;;1.60;;
36443;SDS011;24692;45.642;13.806;2023-04-16T02:00:01;1.70;;;1.60;;
36443;SDS011;24692;45.642;13.806;2023-04-16T02:02:28;1.53;;;1.37;;
36443;SDS011;24692;45.642;13.806;2023-04-16T02:04:54;1.50;;;1.40;;
36443;SDS011;24692;45.642;13.806;2023-04-16T02:07:21;1.67;;;1.40;;
36443;SDS011;24692;45.642;13.806;2023-04-16T02:09:47;2.50;;;1.70;;
36443;SDS011;24692;45.642;13.806;2023-04-16T02:12:14;1.43;;;1.33;;
36443;SDS011;24692;45.642;13.806;2023-04-16T02:14:41;1.50;;;1.40;;
36443;SDS011;24692;45.642;13.806;2023-04-16T02:17:06;1.50;;;1.40;;
36443;SDS011;24692;45.642;13.806;2023-04-16T02:19:32;1.57;;;1.30;;
36443;SDS011;24692;45.642;13.806;2023-04-16T02:21:57;1.70;;;1.50;;
36443;SDS011;24692;45.642;13.806;2023-04-16T02:24:25;1.50;;;1.40;;
36443;SDS011;24692;45.642;13.806;2023-04-16T02:26:51;2.70;;;1.60;;
36443;SDS011;24692;45.642;13.806;2023-04-16T02:29:17;1.70;;;1.60;;
36443;SDS011;24692;45.642;13.806;2023-04-16T02:31:43;1.63;;;1.53;;
36443;SDS011;24692;45.642;13.806;2023-04-16T02:34:09;1.83;;;1.60;;
36443;SDS011;24692;45.642;13.806;2023-04-16T02:36:35;1.63;;;1.40;;
36443;SDS011;24692;45.642;13.806;2023-04-16T02:39:00;1.43;;;1.33;;
36443;SDS011;24692;45.642;13.806;2023-04-16T02:41:26;2.23;;;1.40;;
36443;SDS011;24692;45.642;13.806;2023-04-16T02:43:52;1.47;;;1.30;;
36443;SDS011;24692;45.642;13.806;2023-04-16T02:46:17;1.43;;;1.30;;
36443;SDS011;24692;45.642;13.806;2023-04-16T02:48:43;1.90;;;1.53;;
36443;SDS011;24692;45.642;13.806;2023-04-16T02:51:08;1.60;;;1.20;;
36443;SDS011;24692;45.642;13.806;2023-04-16T02:53:34;1.50;;;1.40;;
36443;SDS011;24692;45.642;13.806;2023-04-16T02:56:00;1.57;;;1.47;;
36443;SDS011;24692;45.642;13.806;2023-04-16T02:58:26;1.70;;;1.37;;
36443;SDS011;24692;45.642;13.806;2023-04-16T03:00:52;1.50;;;1.40;;
36443;SDS011;24692;45.642;13.806;2023-04-16T03:03:18;1.53;;;1.20;;
36443;SDS011;24692;45.642;13.806;2023-04-16T03:05:45;1.53;;;1.30;;
36443;SDS011;24692;45.642;13.806;2023-04-16T03:08:10;1.53;;;1.20;;
36443;SDS011;24692;45.642;13.806;2023-04-16T03:10:36;1.20;;;1.10;;
36443;SDS011;24692;45.642;13.806;2023-04-16T03:13:02;2.23;;;1.27;;
36443;SDS011;24692;45.642;13.806;2023-04-16T03:15:28;1.30;;;1.20;;
36443;SDS011;24692;45.642;13.806;2023-04-16T03:17:55;1.10;;;1.10;;
36443;SDS011;24692;45.642;13.806;2023-04-16T03:20:21;1.30;;;1.20;;
36443;SDS011;24692;45.642;13.806;2023-04-16T03:22:47;1.83;;;1.20;;
36443;SDS011;24692;45.642;13.806;2023-04-16T03:25:13;0.97;;;0.87;;
36443;SDS011;24692;45.642;13.806;2023-04-16T03:27:39;1.30;;;1.20;;
36443;SDS011;24692;45.642;13.806;2023-04-16T03:30:11;1.57;;;1.27;;
36443;SDS011;24692;45.642;13.806;2023-04-16T03:32:38;1.20;;;1.10;;
36443;SDS011;24692;45.642;13.806;2023-04-16T03:35:04;1.37;;;1.10;;
36443;SDS011;24692;45.642;13.806;2023-04-16T03:37:31;1.07;;;1.00;;
36443;SDS011;24692;45.642;13.806;2023-04-16T03:39:57;1.20;;;1.00;;
36443;SDS011;24692;45.642;13.806;2023-04-16T03:42:23;1.00;;;1.00;;
36443;SDS011;24692;45.642;13.806;2023-04-16T03:44:49;1.30;;;1.00;;
36443;SDS011;24692;45.642;13.806;2023-04-16T03:47:15;1.33;;;1.00;;
36443;SDS011;24692;45.642;13.806;2023-04-16T03:49:40;2.23;;;0.97;;
36443;SDS011;24692;45.642;13.806;2023-04-16T03:52:06;1.17;;;0.90;;
36443;SDS011;24692;45.642;13.806;2023-04-16T03:54:32;1.93;;;1.20;;
36443;SDS011;24692;45.642;13.806;2023-04-16T03:56:57;1.20;;;0.93;;
36443;SDS011;24692;45.642;13.806;2023-04-16T03:59:23;1.00;;;1.00;;
36443;SDS011;24692;45.642;13.806;2023-04-16T04:01:49;1.10;;;1.00;;
36443;SDS011;24692;45.642;13.806;2023-04-16T04:04:15;1.33;;;1.10;;
36443;SDS011;24692;45.642;13.806;2023-04-16T04:06:40;2.50;;;1.17;;
36443;SDS011;24692;45.642;13.806;2023-04-16T04:09:06;1.37;;;1.27;;
36443;SDS011;24692;45.642;13.806;2023-04-16T04:11:32;1.47;;;1.23;;
36443;SDS011;24692;45.642;13.806;2023-04-16T04:13:57;1.53;;;1.13;;
36443;SDS011;24692;45.642;13.806;2023-04-16T04:16:23;1.10;;;1.00;;
36443;SDS011;24692;45.642;13.806;2023-04-16T04:18:49;2.17;;;1.07;;
36443;SDS011;24692;45.642;13.806;2023-04-16T04:21:15;1.43;;;1.00;;
36443;SDS011;24692;45.642;13.806;2023-04-16T04:23:40;0.90;;;0.90;;
36443;SDS011;24692;45.642;13.806;2023-04-16T04:26:06;1.17;;;1.07;;
36443;SDS011;24692;45.642;13.806;2023-04-16T04:28:33;1.37;;;1.23;;
36443;SDS011;24692;45.642;13.806;2023-04-16T04:30:59;1.20;;;1.07;;
36443;SDS011;24692;45.642;13.806;2023-04-16T04:33:25;1.10;;;1.00;;
36443;SDS011;24692;45.642;13.806;2023-04-16T04:35:51;1.10;;;1.10;;
36443;SDS011;24692;45.642;13.806;2023-04-16T04:38:17;1.10;;;1.00;;
36443;SDS011;24692;45.642;13.806;2023-04-16T04:40:45;0.90;;;0.87;;
36443;SDS011;24692;45.642;13.806;2023-04-16T04:43:11;1.57;;;1.10;;
36443;SDS011;24692;45.642;13.806;2023-04-16T04:45:36;0.97;;;0.90;;
36443;SDS011;24692;45.642;13.806;2023-04-16T04:48:02;2.00;;;0.90;;
36443;SDS011;24692;45.642;13.806;2023-04-16T04:50:28;0.90;;;0.90;;
36443;SDS011;24692;45.642;13.806;2023-04-16T04:52:54;0.90;;;0.90;;
36443;SDS011;24692;45.642;13.806;2023-04-16T04:55:20;0.80;;;0.80;;
36443;SDS011;24692;45.642;13.806;2023-04-16T04:57:45;1.67;;;1.00;;
36443;SDS011;24692;45.642;13.806;2023-04-16T05:00:11;1.70;;;1.20;;
36443;SDS011;24692;45.642;13.806;2023-04-16T05:02:37;1.20;;;0.90;;
36443;SDS011;24692;45.642;13.806;2023-04-16T05:05:03;0.80;;;0.80;;
36443;SDS011;24692;45.642;13.806;2023-04-16T05:07:29;1.40;;;1.03;;
36443;SDS011;24692;45.642;13.806;2023-04-16T05:09:55;2.17;;;0.80;;
36443;SDS011;24692;45.642;13.806;2023-04-16T05:12:21;0.83;;;0.80;;
36443;SDS011;24692;45.642;13.806;2023-04-16T05:14:46;0.83;;;0.83;;
36443;SDS011;24692;45.642;13.806;2023-04-16T05:17:12;1.13;;;0.90;;
36443;SDS011;24692;45.642;13.806;2023-04-16T05:19:38;1.13;;;0.90;;
36443;SDS011;24692;45.642;13.806;2023-04-16T05:22:03;0.80;;;0.80;;
36443;SDS011;24692;45.642;13.806;2023-04-16T05:24:29;1.10;;;0.80;;
36443;SDS011;24692;45.642;13.806;2023-04-16T05:26:55;1.00;;;0.90;;
36443;SDS011;24692;45.642;13.806;2023-04-16T05:29:21;1.17;;;0.80;;
36443;SDS011;24692;45.642;13.806;2023-04-16T05:31:47;1.03;;;0.90;;
36443;SDS011;24692;45.642;13.806;2023-04-16T05:34:13;1.00;;;1.00;;
36443;SDS011;24692;45.642;13.806;2023-04-16T05:36:38;1.30;;;1.10;;
36443;SDS011;24692;45.642;13.806;2023-04-16T05:39:04;1.20;;;1.10;;
36443;SDS011;24692;45.642;13.806;2023-04-16T05:41:31;1.27;;;0.93;;
36443;SDS011;24692;45.642;13.806;2023-04-16T05:43:57;1.07;;;0.97;;
36443;SDS011;24692;45.642;13.806;2023-04-16T05:46:23;1.13;;;0.97;;
36443;SDS011;24692;45.642;13.806;2023-04-16T05:48:48;1.87;;;0.63;;
36443;SDS011;24692;45.642;13.806;2023-04-16T05:51:14;0.87;;;0.83;;
36443;SDS011;24692;45.642;13.806;2023-04-16T05:53:40;0.70;;;0.70;;
36443;SDS011;24692;45.642;13.806;2023-04-16T05:56:07;0.80;;;0.80;;
36443;SDS011;24692;45.642;13.806;2023-04-16T05:58:32;1.80;;;0.90;;
36443;SDS011;24692;45.642;13.806;2023-04-16T06:00:58;2.00;;;1.00;;
36443;SDS011;24692;45.642;13.806;2023-04-16T06:03:25;0.87;;;0.83;;
36443;SDS011;24692;45.642;13.806;2023-04-16T06:05:51;1.10;;;1.07;;
36443;SDS011;24692;45.642;13.806;2023-04-16T06:08:17;0.70;;;0.70;;
36443;SDS011;24692;45.642;13.806;2023-04-16T06:10:44;0.80;;;0.80;;
36443;SDS011;24692;45.642;13.806;2023-04-16T06:13:11;2.23;;;1.07;;
36443;SDS011;24692;45.642;13.806;2023-04-16T06:15:37;1.40;;;0.93;;
36443;SDS011;24692;45.642;13.806;2023-04-16T06:18:02;1.10;;;1.10;;
36443;SDS011;24692;45.642;13.806;2023-04-16T06:20:28;1.00;;;0.80;;
36443;SDS011;24692;45.642;13.806;2023-04-16T06:22:54;1.17;;;1.07;;
36443;SDS011;24692;45.642;13.806;2023-04-16T06:25:20;1.40;;;1.30;;
36443;SDS011;24692;45.642;13.806;2023-04-16T06:27:46;1.10;;;1.10;;
36443;SDS011;24692;45.642;13.806;2023-04-16T06:30:12;1.47;;;1.23;;
36443;SDS011;24692;45.642;13.806;2023-04-16T06:32:38;1.97;;;1.30;;
36443;SDS011;24692;45.642;13.806;2023-04-16T06:35:05;1.43;;;1.30;;
36443;SDS011;24692;45.642;13.806;2023-04-16T06:37:31;1.87;;;1.40;;
36443;SDS011;24692;45.642;13.806;2023-04-16T06:39:56;1.20;;;1.10;;
36443;SDS011;24692;45.642;13.806;2023-04-16T06:42:22;1.47;;;1.37;;
36443;SDS011;24692;45.642;13.806;2023-04-16T06:44:48;1.40;;;1.23;;
36443;SDS011;24692;45.642;13.806;2023-04-16T06:47:14;1.53;;;1.43;;
36443;SDS011;24692;45.642;13.806;2023-04-16T06:49:40;1.40;;;1.30;;
36443;SDS011;24692;45.642;13.806;2023-04-16T06:52:06;2.70;;;1.40;;
36443;SDS011;24692;45.642;13.806;2023-04-16T06:54:32;1.87;;;1.50;;
36443;SDS011;24692;45.642;13.806;2023-04-16T06:56:57;1.83;;;1.50;;
36443;SDS011;24692;45.642;13.806;2023-04-16T06:59:23;1.40;;;1.30;;
36443;SDS011;24692;45.642;13.806;2023-04-16T07:01:49;1.37;;;1.27;;
36443;SDS011;24692;45.642;13.806;2023-04-16T07:04:16;1.40;;;1.30;;
36443;SDS011;24692;45.642;13.806;2023-04-16T07:06:42;2.10;;;1.70;;
36443;SDS011;24692;45.642;13.806;2023-04-16T07:09:07;1.57;;;1.10;;
36443;SDS011;24692;45.642;13.806;2023-04-16T07:11:33;1.30;;;1.23;;
36443;SDS011;24692;45.642;13.806;2023-04-16T07:13:59;1.80;;;1.40;;
36443;SDS011;24692;45.642;13.806;2023-04-16T07:16:25;1.27;;;1.20;;
36443;SDS011;24692;45.642;13.806;2023-04-16T07:18:51;2.30;;;1.20;;
36443;SDS011;24692;45.642;13.806;2023-04-16T07:21:16;3.10;;;1.30;;
36443;SDS011;24692;45.642;13.806;2023-04-16T07:23:42;1.43;;;1.30;;
36443;SDS011;24692;45.642;13.806;2023-04-16T07:26:08;1.20;;;1.10;;
36443;SDS011;24692;45.642;13.806;2023-04-16T07:28:34;1.30;;;1.20;;
36443;SDS011;24692;45.642;13.806;2023-04-16T07:31:00;1.27;;;1.17;;
36443;SDS011;24692;45.642;13.806;2023-04-16T07:33:25;1.17;;;1.07;;
36443;SDS011;24692;45.642;13.806;2023-04-16T07:35:51;1.47;;;1.27;;
36443;SDS011;24692;45.642;13.806;2023-04-16T07:38:17;1.20;;;1.10;;
36443;SDS011;24692;45.642;13.806;2023-04-16T07:40:42;2.00;;;1.10;;
36443;SDS011;24692;45.642;13.806;2023-04-16T07:43:08;1.37;;;1.27;;
36443;SDS011;24692;45.642;13.806;2023-04-16T07:45:34;1.20;;;1.00;;
36443;SDS011;24692;45.642;13.806;2023-04-16T07:48:00;1.03;;;0.97;;
36443;SDS011;24692;45.642;13.806;2023-04-16T07:50:25;1.20;;;1.10;;
36443;SDS011;24692;45.642;13.806;2023-04-16T07:52:52;1.40;;;1.30;;
36443;SDS011;24692;45.642;13.806;2023-04-16T07:55:17;0.93;;;0.93;;
36443;SDS011;24692;45.642;13.806;2023-04-16T07:57:43;1.20;;;1.10;;
36443;SDS011;24692;45.642;13.806;2023-04-16T08:00:09;1.30;;;1.10;;
36443;SDS011;24692;45.642;13.806;2023-04-16T08:02:35;1.43;;;1.30;;
36443;SDS011;24692;45.642;13.806;2023-04-16T08:05:01;1.23;;;1.10;;
36443;SDS011;24692;45.642;13.806;2023-04-16T08:07:27;1.60;;;1.10;;
36443;SDS011;24692;45.642;13.806;2023-04-16T08:09:52;1.40;;;1.30;;
36443;SDS011;24692;45.642;13.806;2023-04-16T08:12:18;1.40;;;1.30;;
36443;SDS011;24692;45.642;13.806;2023-04-16T08:14:45;1.40;;;1.30;;
36443;SDS011;24692;45.642;13.806;2023-04-16T08:17:14;1.60;;;1.00;;
36443;SDS011;24692;45.642;13.806;2023-04-16T08:19:40;1.40;;;1.20;;
36443;SDS011;24692;45.642;13.806;2023-04-16T08:22:06;1.60;;;1.17;;
36443;SDS011;24692;45.642;13.806;2023-04-16T08:24:32;1.30;;;1.20;;
36443;SDS011;24692;45.642;13.806;2023-04-16T08:26:58;1.23;;;1.13;;
36443;SDS011;24692;45.642;13.806;2023-04-16T08:29:23;1.00;;;1.00;;
36443;SDS011;24692;45.642;13.806;2023-04-16T08:31:50;1.10;;;1.10;;
36443;SDS011;24692;45.642;13.806;2023-04-16T08:34:16;1.30;;;1.20;;
36443;SDS011;24692;45.642;13.806;2023-04-16T08:36:42;1.80;;;1.40;;
36443;SDS011;24692;45.642;13.806;2023-04-16T08:39:08;1.07;;;1.07;;
36443;SDS011;24692;45.642;13.806;2023-04-16T08:41:33;1.20;;;1.10;;
36443;SDS011;24692;45.642;13.806;2023-04-16T08:44:24;1.03;;;1.03;;
36443;SDS011;24692;45.642;13.806;2023-04-16T08:46:52;1.20;;;1.10;;
36443;SDS011;24692;45.642;13.806;2023-04-16T08:49:23;1.57;;;1.30;;
36443;SDS011;24692;45.642;13.806;2023-04-16T08:51:50;1.17;;;1.00;;
36443;SDS011;24692;45.642;13.806;2023-04-16T08:57:04;1.27;;;1.17;;
36443;SDS011;24692;45.642;13.806;2023-04-16T08:59:34;1.63;;;1.20;;
36443;SDS011;24692;45.642;13.806;2023-04-16T09:02:00;1.20;;;1.10;;
36443;SDS011;24692;45.642;13.806;2023-04-16T09:04:27;1.20;;;1.10;;
36443;SDS011;24692;45.642;13.806;2023-04-16T09:06:54;2.17;;;1.30;;
36443;SDS011;24692;45.642;13.806;2023-04-16T09:09:21;1.40;;;1.30;;
36443;SDS011;24692;45.642;13.806;2023-04-16T09:11:50;1.30;;;1.20;;
36443;SDS011;24692;45.642;13.806;2023-04-16T09:14:17;1.40;;;1.30;;
36443;SDS011;24692;45.642;13.806;2023-04-16T09:16:47;1.20;;;1.10;;
36443;SDS011;24692;45.642;13.806;2023-04-16T09:19:13;1.17;;;1.13;;
36443;SDS011;24692;45.642;13.806;2023-04-16T09:21:40;1.40;;;1.30;;
36443;SDS011;24692;45.642;13.806;2023-04-16T09:24:07;0.90;;;0.90;;
36443;SDS011;24692;45.642;13.806;2023-04-16T09:26:34;1.37;;;1.10;;
36443;SDS011;24692;45.642;13.806;2023-04-16T09:29:00;1.27;;;1.10;;
36443;SDS011;24692;45.642;13.806;2023-04-16T09:31:26;1.30;;;1.10;;
36443;SDS011;24692;45.642;13.806;2023-04-16T09:36:27;1.30;;;1.20;;
36443;SDS011;24692;45.642;13.806;2023-04-16T09:38:53;1.07;;;1.07;;
36443;SDS011;24692;45.642;13.806;2023-04-16T09:41:23;1.03;;;1.03;;
36443;SDS011;24692;45.642;13.806;2023-04-16T09:44:00;1.50;;;1.40;;
36443;SDS011;24692;45.642;13.806;2023-04-16T09:46:28;1.30;;;1.20;;
36443;SDS011;24692;45.642;13.806;2023-04-16T09:49:07;1.53;;;1.30;;
36443;SDS011;24692;45.642;13.806;2023-04-16T09:51:45;1.40;;;1.30;;
36443;SDS011;24692;45.642;13.806;2023-04-16T09:54:12;1.57;;;1.40;;
36443;SDS011;24692;45.642;13.806;2023-04-16T09:56:39;1.30;;;1.20;;
36443;SDS011;24692;45.642;13.806;2023-04-16T09:59:06;1.40;;;1.30;;
36443;SDS011;24692;45.642;13.806;2023-04-16T10:01:33;1.60;;;1.50;;
36443;SDS011;24692;45.642;13.806;2023-04-16T10:04:00;2.07;;;1.63;;
36443;SDS011;24692;45.642;13.806;2023-04-16T10:06:30;1.93;;;1.53;;
36443;SDS011;24692;45.642;13.806;2023-04-16T10:08:56;2.97;;;1.40;;
36443;SDS011;24692;45.642;13.806;2023-04-16T10:11:22;1.27;;;1.17;;
36443;SDS011;24692;45.642;13.806;2023-04-16T10:13:48;2.10;;;1.60;;
36443;SDS011;24692;45.642;13.806;2023-04-16T10:16:14;2.40;;;1.60;;
36443;SDS011;24692;45.642;13.806;2023-04-16T10:18:41;1.50;;;1.40;;
36443;SDS011;24692;45.642;13.806;2023-04-16T10:21:08;2.30;;;1.40;;
36443;SDS011;24692;45.642;13.806;2023-04-16T10:23:37;1.60;;;1.50;;
36443;SDS011;24692;45.642;13.806;2023-04-16T10:26:04;1.73;;;1.30;;
36443;SDS011;24692;45.642;13.806;2023-04-16T10:28:30;1.60;;;1.50;;
36443;SDS011;24692;45.642;13.806;2023-04-16T10:30:59;1.83;;;1.60;;
36443;SDS011;24692;45.642;13.806;2023-04-16T10:33:27;1.87;;;1.50;;
36443;SDS011;24692;45.642;13.806;2023-04-16T10:36:05;1.90;;;1.60;;
36443;SDS011;24692;45.642;13.806;2023-04-16T10:38:37;1.87;;;1.40;;
36443;SDS011;24692;45.642;13.806;2023-04-16T10:41:04;2.13;;;1.87;;
36443;SDS011;24692;45.642;13.806;2023-04-16T10:43:32;1.53;;;1.40;;
36443;SDS011;24692;45.642;13.806;2023-04-16T10:48:52;2.00;;;1.70;;
36443;SDS011;24692;45.642;13.806;2023-04-16T10:51:28;2.83;;;1.50;;
36443;SDS011;24692;45.642;13.806;2023-04-16T10:53:57;1.50;;;1.40;;
36443;SDS011;24692;45.642;13.806;2023-04-16T10:56:33;3.00;;;2.50;;
36443;SDS011;24692;45.642;13.806;2023-04-16T10:59:03;2.27;;;1.50;;
36443;SDS011;24692;45.642;13.806;2023-04-16T11:01:30;1.53;;;1.33;;
36443;SDS011;24692;45.642;13.806;2023-04-16T11:06:58;1.60;;;1.30;;
36443;SDS011;24692;45.642;13.806;2023-04-16T11:12:11;1.30;;;1.20;;
36443;SDS011;24692;45.642;13.806;2023-04-16T11:14:39;1.40;;;1.30;;
36443;SDS011;24692;45.642;13.806;2023-04-16T11:17:05;1.40;;;1.30;;
36443;SDS011;24692;45.642;13.806;2023-04-16T11:19:31;1.37;;;1.13;;
36443;SDS011;24692;45.642;13.806;2023-04-16T11:21:59;1.40;;;1.30;;
36443;SDS011;24692;45.642;13.806;2023-04-16T11:24:28;2.17;;;1.20;;
36443;SDS011;24692;45.642;13.806;2023-04-16T11:26:55;1.57;;;1.33;;
36443;SDS011;24692;45.642;13.806;2023-04-16T11:29:21;2.07;;;1.23;;
36443;SDS011;24692;45.642;13.806;2023-04-16T11:31:50;1.30;;;1.20;;
36443;SDS011;24692;45.642;13.806;2023-04-16T11:34:17;1.77;;;1.33;;
36443;SDS011;24692;45.642;13.806;2023-04-16T11:36:43;1.40;;;1.30;;
36443;SDS011;24692;45.642;13.806;2023-04-16T11:39:10;1.20;;;1.10;;
36443;SDS011;24692;45.642;13.806;2023-04-16T11:41:45;1.30;;;1.20;;
36443;SDS011;24692;45.642;13.806;2023-04-16T11:44:25;1.40;;;1.30;;
36443;SDS011;24692;45.642;13.806;2023-04-16T11:46:52;1.40;;;1.30;;
36443;SDS011;24692;45.642;13.806;2023-04-16T11:49:30;1.80;;;1.20;;
36443;SDS011;24692;45.642;13.806;2023-04-16T11:51:56;1.37;;;1.27;;
36443;SDS011;24692;45.642;13.806;2023-04-16T11:54:22;1.27;;;1.17;;
36443;SDS011;24692;45.642;13.806;2023-04-16T11:56:49;1.20;;;1.10;;
36443;SDS011;24692;45.642;13.806;2023-04-16T11:59:20;1.70;;;1.50;;
36443;SDS011;24692;45.642;13.806;2023-04-16T12:01:48;1.93;;;1.77;;
36443;SDS011;24692;45.642;13.806;2023-04-16T12:04:15;1.83;;;1.43;;
36443;SDS011;24692;45.642;13.806;2023-04-16T12:07:17;1.23;;;1.17;;
36443;SDS011;24692;45.642;13.806;2023-04-16T12:09:39;2.67;;;1.07;;
36443;SDS011;24692;45.642;13.806;2023-04-16T12:12:25;1.73;;;1.20;;
36443;SDS011;24692;45.642;13.806;2023-04-16T12:14:51;1.67;;;1.13;;
36443;SDS011;24692;45.642;13.806;2023-04-16T12:17:19;1.00;;;1.00;;
36443;SDS011;24692;45.642;13.806;2023-04-16T12:19:49;1.83;;;1.40;;
36443;SDS011;24692;45.642;13.806;2023-04-16T12:22:32;1.40;;;1.30;;
36443;SDS011;24692;45.642;13.806;2023-04-16T12:25:03;1.43;;;1.33;;
36443;SDS011;24692;45.642;13.806;2023-04-16T12:30:16;1.37;;;1.27;;
36443;SDS011;24692;45.642;13.806;2023-04-16T12:32:47;1.13;;;1.03;;
36443;SDS011;24692;45.642;13.806;2023-04-16T12:35:13;0.93;;;0.93;;
36443;SDS011;24692;45.642;13.806;2023-04-16T12:37:59;1.20;;;1.10;;
36443;SDS011;24692;45.642;13.806;2023-04-16T12:40:25;1.77;;;1.30;;
36443;SDS011;24692;45.642;13.806;2023-04-16T12:42:51;1.17;;;1.07;;
36443;SDS011;24692;45.642;13.806;2023-04-16T12:45:16;1.00;;;1.00;;
36443;SDS011;24692;45.642;13.806;2023-04-16T12:47:42;1.33;;;1.13;;
36443;SDS011;24692;45.642;13.806;2023-04-16T12:50:08;1.43;;;1.33;;
36443;SDS011;24692;45.642;13.806;2023-04-16T12:52:34;1.37;;;1.27;;
36443;SDS011;24692;45.642;13.806;2023-04-16T12:55:00;2.03;;;1.20;;
36443;SDS011;24692;45.642;13.806;2023-04-16T12:57:26;1.60;;;1.13;;
36443;SDS011;24692;45.642;13.806;2023-04-16T12:59:55;1.40;;;1.30;;
36443;SDS011;24692;45.642;13.806;2023-04-16T13:02:22;1.17;;;1.10;;
36443;SDS011;24692;45.642;13.806;2023-04-16T13:04:49;1.40;;;1.30;;
36443;SDS011;24692;45.642;13.806;2023-04-16T13:07:15;1.40;;;1.30;;
36443;SDS011;24692;45.642;13.806;2023-04-16T13:09:41;1.30;;;1.20;;
36443;SDS011;24692;45.642;13.806;2023-04-16T13:12:07;1.17;;;1.00;;
36443;SDS011;24692;45.642;13.806;2023-04-16T13:14:32;1.03;;;1.03;;
36443;SDS011;24692;45.642;13.806;2023-04-16T13:16:58;1.30;;;1.20;;
36443;SDS011;24692;45.642;13.806;2023-04-16T13:19:24;1.80;;;1.60;;
36443;SDS011;24692;45.642;13.806;2023-04-16T13:21:49;1.83;;;1.37;;
36443;SDS011;24692;45.642;13.806;2023-04-16T13:24:15;1.40;;;1.30;;
36443;SDS011;24692;45.642;13.806;2023-04-16T13:26:41;1.30;;;1.20;;
36443;SDS011;24692;45.642;13.806;2023-04-16T13:29:07;1.53;;;1.43;;
36443;SDS011;24692;45.642;13.806;2023-04-16T13:31:33;1.60;;;1.50;;
36443;SDS011;24692;45.642;13.806;2023-04-16T13:33:59;1.40;;;1.30;;
36443;SDS011;24692;45.642;13.806;2023-04-16T13:36:25;1.20;;;1.10;;
36443;SDS011;24692;45.642;13.806;2023-04-16T13:38:51;1.10;;;1.00;;
36443;SDS011;24692;45.642;13.806;2023-04-16T13:41:17;1.37;;;1.27;;
36443;SDS011;24692;45.642;13.806;2023-04-16T13:43:42;1.40;;;1.30;;
36443;SDS011;24692;45.642;13.806;2023-04-16T13:46:08;1.43;;;1.30;;
36443;SDS011;24692;45.642;13.806;2023-04-16T13:48:34;1.10;;;1.10;;
36443;SDS011;24692;45.642;13.806;2023-04-16T13:50:59;1.20;;;1.17;;
36443;SDS011;24692;45.642;13.806;2023-04-16T13:53:26;1.53;;;1.20;;
36443;SDS011;24692;45.642;13.806;2023-04-16T13:55:51;1.13;;;1.03;;
36443;SDS011;24692;45.642;13.806;2023-04-16T13:58:17;1.20;;;1.10;;
36443;SDS011;24692;45.642;13.806;2023-04-16T14:00:43;1.23;;;1.13;;
36443;SDS011;24692;45.642;13.806;2023-04-16T14:03:09;1.07;;;1.00;;
36443;SDS011;24692;45.642;13.806;2023-04-16T14:05:35;1.23;;;1.17;;
36443;SDS011;24692;45.642;13.806;2023-04-16T14:08:00;1.20;;;1.10;;
36443;SDS011;24692;45.642;13.806;2023-04-16T14:10:26;1.00;;;0.90;;
36443;SDS011;24692;45.642;13.806;2023-04-16T14:12:52;1.00;;;0.97;;
36443;SDS011;24692;45.642;13.806;2023-04-16T14:15:17;1.00;;;0.90;;
36443;SDS011;24692;45.642;13.806;2023-04-16T14:17:44;1.00;;;1.00;;
36443;SDS011;24692;45.642;13.806;2023-04-16T14:20:10;1.30;;;1.20;;
36443;SDS011;24692;45.642;13.806;2023-04-16T14:22:37;1.13;;;1.03;;
36443;SDS011;24692;45.642;13.806;2023-04-16T14:25:04;1.00;;;1.00;;
36443;SDS011;24692;45.642;13.806;2023-04-16T14:27:30;1.13;;;1.13;;
36443;SDS011;24692;45.642;13.806;2023-04-16T14:29:58;1.10;;;1.10;;
36443;SDS011;24692;45.642;13.806;2023-04-16T14:32:24;1.33;;;1.20;;
36443;SDS011;24692;45.642;13.806;2023-04-16T14:34:50;1.27;;;1.17;;
36443;SDS011;24692;45.642;13.806;2023-04-16T14:37:16;1.10;;;1.00;;
36443;SDS011;24692;45.642;13.806;2023-04-16T14:39:42;0.93;;;0.93;;
36443;SDS011;24692;45.642;13.806;2023-04-16T14:42:09;1.07;;;1.07;;
36443;SDS011;24692;45.642;13.806;2023-04-16T14:44:35;2.30;;;1.13;;
36443;SDS011;24692;45.642;13.806;2023-04-16T14:47:00;1.20;;;1.10;;